WETTERDATEN

GESTERN
Time Temp. Taup. r.Fe. Windrich Windstärke Windböe Druck 1h Prec. 24h Prec.
00:03 0.4 -0.3 95 45 0.3 1.1 995.2 0.0000 0.0000
00:22 0.5 -0.1 96 239 0.3 1.1 995 0.0000 0.0000
00:33 0.4 -0.1 96 270 0.3 1.1 994.6 0.0000 0.0000
00:43 0.5 -0.1 96 270 0.3 1.1 994.7 0.0000 0.0000
00:53 0.5 -0.1 96 45 0.3 1.1 994.5 0.0000 0.0000
01:03 0.5 -0.1 96 45 0.3 1.1 994.5 0.1250 0.1000
01:23 0.4 -0.1 96 270 0.3 1.1 994.4 0.1250 0.1000
01:33 0.4 -0.1 96 303 0.3 0.8 994.2 0.1250 0.1000
01:44 0.3 -0.2 96 270 0.3 0.8 994.2 0.1250 0.1000
01:53 0.3 -0.2 96 228 0.3 1.1 994.2 0.1250 0.1000
02:03 0.2 -0.3 96 270 0.3 1.1 994.2 0.0000 0.1000
02:14 0.2 -0.3 96 239 0.3 1.1 994.2 0.0000 0.1000
02:24 0.1 -0.4 96 38 0.3 1.1 994.3 0.0000 0.1000
02:34 0.1 -0.4 96 315 0.3 1.1 994.3 0.0000 0.1000
02:43 0 -0.5 96 315 0.3 1.1 994.4 0.0000 0.1000
02:54 -0.2 -0.7 96 66 0.8 2.2 994.3 0.0000 0.1000
03:04 -0.4 -0.9 96 270 0.3 1.1 994.2 0.0000 0.1000
03:14 -0.6 -1.1 96 230 0.3 1.1 994.2 0.0000 0.1000
03:24 -0.7 -1.2 96 228 0.3 1.4 994 0.0000 0.1000
03:34 -0.8 -1.3 96 247 0.8 1.4 994 0.0000 0.1000
03:44 -0.9 -1.4 96 244 0.8 1.4 994.1 0.0000 0.1000
03:54 -1.1 -1.6 96 229 0.8 1.4 994.1 0.0000 0.1000
04:05 -1.2 -1.7 96 236 0.8 1.1 994.2 0.0000 0.1000
04:14 -1.4 -1.9 96 231 0.3 1.4 994.2 0.0000 0.1000
04:24 -1.6 -2.1 96 231 0.3 1.4 994.4 0.0000 0.1000
04:34 -1.7 -2.1 97 341 0.3 1.1 994.4 0.0000 0.1000
04:45 -1.7 -2.1 97 239 0.3 0.8 994.6 0.0000 0.1000
04:55 -1.7 -2.1 97 208 0.3 0.8 994.9 0.0000 0.1000
05:04 -1.6 -2 97 90 0.8 1.1 994.7 0.0000 0.1000
05:15 -1.6 -2 97 270 0.3 0.3 994.9 0.0000 0.1000
05:25 -1.6 -2 97 135 0.3 0.8 994.7 0.0000 0.1000
05:35 -1.7 -2.1 97 270 0.3 0.8 994.9 0.0000 0.1000
05:45 -1.7 -2.1 97 239 0.3 1.1 995 0.0000 0.1000
05:55 -1.7 -2.1 97 302 0.3 0.8 994.9 0.0000 0.1000
06:05 -1.6 -1.8 98 270 0.3 1.1 994.9 0.0000 0.1000
06:14 -1.5 -1.7 98 270 0.3 0.8 995.1 0.0000 0.1000
06:26 -1.5 -1.7 98 225 0.3 1.1 995.3 0.0000 0.1000
06:36 -1.4 -1.6 98 11 0.3 1.1 995.4 0.0000 0.1000
06:45 -1.3 -1.5 98 23 0.8 1.1 995.6 0.0000 0.1000
06:55 -1.2 -1.4 98 38 0.3 1.4 995.9 0.0000 0.1000
07:06 -1.1 -1.3 98 235 0.8 1.4 995.9 0.0000 0.1000
07:16 -1 -1.2 98 270 0.3 1.1 995.9 0.0000 0.1000
07:25 -0.8 -1 98 60 0.3 1.4 996.1 0.0000 0.1000
07:36 -0.8 -1 98 270 0.3 0.8 996.3 0.0000 0.1000
07:46 -0.6 -0.8 98 225 0.8 1.4 996.4 0.0000 0.1000
07:56 -0.5 -0.7 98 243 0.8 0.8 996.4 0.0000 0.1000
08:06 -0.4 -0.6 98 315 0.3 1.1 996.5 0.0000 0.1000
08:16 -0.4 -0.6 98 242 0.8 1.9 996.7 0.0000 0.1000
08:26 -0.4 -0.6 98 236 0.3 1.1 996.7 0.0000 0.1000
08:36 -0.3 -0.5 98 235 0.3 1.4 996.7 0.0000 0.1000
08:46 -0.3 -0.5 98 228 0.3 1.4 996.8 0.0000 0.1000
08:57 -0.3 -0.5 98 270 0.3 1.4 997 0.0000 0.1000
09:06 -0.2 -0.4 98 229 0.3 1.4 997.2 0.0000 0.1000
09:16 -0.1 -0.2 99 270 0.3 1.1 997.4 0.0000 0.1000
09:27 0 -0.2 98 239 0.3 1.9 997.5 0.0000 0.1000
09:37 0.1 -0.2 98 248 0.8 2.2 997.9 0.0000 0.1000
09:47 0.5 0.4 99 221 0.3 1.9 998 0.0000 0.1000
09:57 1.5 1.5 100 223 1.1 1.9 998.3 0.1250 0.3000
10:07 2.6 2.6 100 237 1.1 2.8 998.2 0.1250 0.3000
10:17 3.3 3.2 99 241 0.8 2.2 998.3 0.2500 0.4000
10:27 3.6 3.3 98 251 1.1 2.8 998.4 0.2500 0.4000
10:38 3.3 2.6 95 251 1.1 2.2 998.4 0.2500 0.4000
10:47 3.2 2.2 93 248 0.8 1.9 998.5 0.1250 0.4000
10:57 3.1 2.1 93 245 0.8 2.2 998.5 0.1250 0.4000
11:08 3.3 2.3 93 235 0.8 2.2 998.4 0.1250 0.4000
11:18 3.5 2.3 92 247 1.4 2.5 998.4 0.0000 0.4000
11:28 3.7 2.4 91 245 1.4 3.9 998.6 0.0000 0.4000
11:37 4 2.5 90 242 1.4 3.6 998.4 0.0000 0.4000
11:48 4.2 2.2 87 244 2.2 5 998.2 0.0000 0.4000
11:58 3.8 1.3 84 243 2.5 5.6 998.4 0.0000 0.4000
12:08 3.6 0.8 82 246 1.9 4.7 998.4 0.0000 0.4000
12:18 3.4 0.6 82 239 2.2 3.6 998.5 0.0000 0.4000
12:28 3.7 0.7 81 244 1.9 3.3 998.5 0.0000 0.4000
12:38 4 0.9 80 244 1.9 3.3 998.5 0.0000 0.4000
12:48 4.6 1.5 80 237 1.9 3.9 998.5 0.0000 0.4000
12:59 5.1 1.6 78 241 1.4 3.3 998.6 0.0000 0.4000
13:08 5.6 1.9 77 235 1.1 2.5 998.6 0.0000 0.4000
13:18 5.9 1.8 75 211 1.4 3.3 998.5 0.0000 0.4000
13:29 5.9 1.6 74 228 1.4 3.6 998.5 0.0000 0.4000
13:39 5.9 1.4 73 220 1.1 2.8 998.6 0.0000 0.4000
13:49 5.6 1.1 73 235 1.9 4.4 998.7 0.0000 0.4000
13:59 5.3 0.7 72 230 1.4 3.3 998.7 0.0000 0.4000
14:09 5 0.4 72 229 1.4 3.9 998.8 0.0000 0.4000
14:19 4.7 0.1 72 234 1.9 3.6 998.9 0.0000 0.4000
14:29 4.4 -0.2 72 236 1.9 4.7 999 0.0000 0.4000
14:39 4.1 -0.4 72 227 1.9 3.6 999.1 0.0000 0.4000
14:49 3.8 -0.9 71 240 1.4 3.3 999.2 0.0000 0.4000
14:59 3.5 -1.1 71 230 1.4 3.3 999.2 0.0000 0.4000
15:09 3.2 -1.4 71 239 1.4 2.8 999.2 0.0000 0.4000
15:20 3 -1.5 71 229 1.1 1.9 999.1 0.0000 0.4000
15:30 2.8 -1.5 72 228 1.1 3.3 999.1 0.0000 0.4000
15:39 2.6 -1.7 72 233 1.4 2.5 999.2 0.0000 0.4000
15:50 2.5 -1.6 73 235 1.1 2.5 999.1 0.0000 0.4000
16:00 2.4 -1.9 72 222 0.8 1.9 999.1 0.0000 0.4000
16:10 2.1 -2 73 222 0.8 1.4 999.2 0.0000 0.4000
16:20 1.8 -2.1 74 236 0.3 1.1 999.1 0.0000 0.4000
16:30 1.6 -2.2 74 244 0.8 1.4 999.2 0.0000 0.4000
16:40 1.5 -2.2 75 233 0.8 1.1 999.2 0.0000 0.4000
16:50 1.3 -2.3 75 237 0.3 1.1 999.3 0.0000 0.4000
17:00 1.2 -2.4 75 235 0.8 1.9 999.2 0.0000 0.4000
17:11 1.1 -2.5 75 237 0.8 1.9 999.2 0.0000 0.4000
17:20 1 -2.6 75 235 0.3 1.1 999.2 0.0000 0.4000
17:30 1 -2.6 75 244 1.1 2.2 999.1 0.0000 0.4000
17:41 0.9 -2.7 75 244 1.1 2.5 999.2 0.0000 0.4000
17:51 0.9 -2.7 75 232 0.8 1.4 999.2 0.0000 0.4000
18:01 0.7 -2.8 75 231 0.8 1.4 999.3 0.0000 0.4000
18:10 0.6 -2.9 75 238 0.8 1.4 999.4 0.0000 0.4000
18:21 0.5 -2.9 76 250 0.8 1.9 999.5 0.0000 0.4000
18:31 0.4 -2.9 76 241 1.1 2.2 999.5 0.0000 0.4000
18:41 0.5 -2.9 76 239 1.1 2.5 999.6 0.0000 0.4000
18:51 0.5 -2.9 76 238 0.8 1.4 999.7 0.0000 0.4000
19:01 0.6 -2.6 77 239 0.8 1.9 999.8 0.0000 0.4000
19:11 0.6 -2.6 77 231 0.8 1.4 999.7 0.0000 0.4000
19:21 0.7 -2.5 77 225 0.8 2.2 999.7 0.0000 0.4000
19:32 0.7 -2.5 77 229 0.8 2.5 999.8 0.0000 0.4000
19:41 0.7 -2.5 77 229 0.8 1.9 999.9 0.0000 0.4000
19:51 0.8 -2.4 77 239 1.1 3.6 999.8 0.0000 0.4000
20:02 0.9 -2.4 77 243 1.1 1.9 999.9 0.0000 0.4000
20:12 1 -2.3 77 236 0.8 1.9 1000 0.0000 0.4000
20:22 1 -2.3 77 238 0.8 1.9 1000 0.0000 0.4000
20:31 1 -2.3 77 239 0.8 2.2 1000 0.0000 0.4000
20:42 1.1 -2 78 237 0.8 3.3 999.9 0.0000 0.4000
20:52 1.1 -2 78 239 1.1 1.9 1000.1 0.0000 0.4000
21:02 1.1 -2 78 244 1.4 2.5 999.8 0.0000 0.4000
21:12 1.1 -2 78 235 1.4 3.6 999.8 0.0000 0.4000
21:22 1.1 -2 78 243 1.1 2.2 999.9 0.0000 0.4000
21:32 1.1 -1.9 79 228 1.1 2.8 1000.1 0.0000 0.4000
21:42 1.1 -1.9 79 239 1.1 2.8 1000.2 0.0000 0.4000
21:53 1.1 -1.9 79 233 1.1 2.5 1000.3 0.0000 0.4000
22:03 1.1 -1.7 80 242 1.4 3.3 1000.1 0.0000 0.4000
22:12 1 -1.8 80 233 1.1 2.2 1000.1 0.0000 0.4000
22:23 1 -1.7 81 225 0.3 1.9 1000.1 0.0000 0.4000
22:33 1 -1.7 81 225 0.3 2.2 1000 0.0000 0.4000
22:43 0.9 -1.8 81 225 0.3 1.1 1000.1 0.0000 0.4000
22:53 0.9 -1.8 81 228 0.8 1.9 1000.1 0.0000 0.4000
23:03 0.9 -1.8 81 234 0.8 2.2 1000.2 0.0000 0.4000
23:13 0.9 -1.8 81 240 0.8 1.9 1000.2 0.0000 0.4000
23:23 0.8 -1.8 81 228 0.8 1.9 1000.2 0.0000 0.4000
23:33 0.8 -1.8 81 236 1.1 2.2 1000.2 0.0000 0.4000
23:44 0.8 -1.8 81 246 0.8 1.9 1000 0.0000 0.4000
23:53 0.8 -1.7 82 250 0.8 2.2 999.9 0.0000

TAGESSTATISTIK

2021-01-24
TEMPERATUR
MITTEL
1.1
MAXIMUM
5.9
13:18
MINIMUM
-1.7
04:34
LUFTDRUCK
MITTEL
997.6
MAXIMUM
1000.3
21:53
MINIMUM
994.0
03:24
TAUPUNKT
MITTEL
-0.9
MAXIMUM
3.3
10:27
MINIMUM
-2.9
18:10
FEUCHTIGKEIT
MITTEL
86
MAXIMUM
100
09:57
MINIMUM
71
14:49
WINDSTÄRKE
MITTEL
0.8
MAXIMUM
2.5
11:58
WINDBÖE
MITTEL
2.0
MAXIMUM
5.6
11:58
WINDRICHTUNG
VORHERRSCHENDE
SW
73.8%
N
1.4
NO
5.7
O
0.7
SO
0.7
S
0.0
SW
73.8
W
14.2
NW
3.5
NIEDERSCHLAG
REGEN STUNDE
0.3
REGEN TAG
0.4
TEMPERATUR (°C)
MINIMUM
-1.7
MAXIMUM
5.9
MITTEL
1.1
LUFTDRUCK (hpa)
MINIMUM
994.0
MAXIMUM
1000.3
MITTEL
997.6
MESSGERÄT